createdAt,value
2019-02-12T00:03:02.061Z,31.34
2019-02-12T00:08:09.572Z,31.34
2019-02-12T00:13:17.071Z,31.24
2019-02-12T00:18:24.571Z,31.21
2019-02-12T00:23:32.002Z,31.18
2019-02-12T00:28:39.403Z,31.19
2019-02-12T00:33:46.987Z,31.26
2019-02-12T00:38:54.837Z,31.35
2019-02-12T00:44:03.417Z,31.45
2019-02-12T00:49:10.989Z,31.42
2019-02-12T00:54:26.568Z,31.49
2019-02-12T00:59:40.923Z,31.53
2019-02-12T01:04:57.338Z,31.53
2019-02-12T01:10:15.025Z,31.33
2019-02-12T01:15:30.089Z,31.11
2019-02-12T01:20:46.463Z,30.92
2019-02-12T01:26:07.873Z,30.91
2019-02-12T01:31:23.418Z,30.95
2019-02-12T01:36:42.228Z,30.89
2019-02-12T01:41:51.611Z,30.91
2019-02-12T01:47:04.464Z,30.84
2019-02-12T01:52:14.514Z,30.93
2019-02-12T01:57:32.966Z,30.93
2019-02-12T02:03:03.040Z,30.93
2019-02-12T02:08:15.401Z,31.05
2019-02-12T02:13:26.140Z,31.01
2019-02-12T02:18:33.138Z,31.13
2019-02-12T02:23:40.514Z,31.31
2019-02-12T02:28:47.513Z,31.01
2019-02-12T02:33:54.911Z,30.76
2019-02-12T02:39:02.384Z,30.79
2019-02-12T02:44:09.926Z,30.79
2019-02-12T02:49:17.386Z,30.85
2019-02-12T02:54:24.963Z,30.83
2019-02-12T02:59:32.395Z,31.02
2019-02-12T03:04:40.678Z,31.12
2019-02-12T03:09:48.486Z,31.21
2019-02-12T03:14:55.888Z,31.26
2019-02-12T03:20:15.580Z,31.53
2019-02-12T03:25:23.111Z,31.60
2019-02-12T03:30:30.423Z,31.52
2019-02-12T03:35:37.922Z,31.44
2019-02-12T03:40:45.086Z,31.70
2019-02-12T03:45:52.498Z,31.28
2019-02-12T03:51:00.718Z,30.96
2019-02-12T03:56:07.815Z,30.74
2019-02-12T04:01:15.021Z,30.71
2019-02-12T04:06:22.387Z,30.94
2019-02-12T04:11:30.750Z,31.08
2019-02-12T04:16:38.093Z,31.04
2019-02-12T04:21:45.561Z,31.18
2019-02-12T04:26:52.973Z,31.24
2019-02-12T04:32:00.403Z,31.32
2019-02-12T04:37:08.097Z,31.38
2019-02-12T08:47:04.937Z,31.87
2019-02-12T08:52:12.840Z,31.89
2019-02-12T08:57:20.270Z,31.91
2019-02-12T09:02:27.653Z,31.89
2019-02-12T09:07:34.974Z,31.71
2019-02-12T09:12:42.672Z,31.46
2019-02-12T09:17:50.066Z,31.28
2019-02-12T09:22:57.819Z,31.24
2019-02-12T09:28:04.926Z,31.18
2019-02-12T09:33:12.006Z,31.16
2019-02-12T09:38:19.371Z,31.19
2019-02-12T09:43:26.878Z,31.09
2019-02-12T09:48:34.117Z,31.15
2019-02-12T09:53:41.482Z,31.21
2019-02-12T09:58:48.789Z,31.27
2019-02-12T10:03:56.755Z,31.29
2019-02-12T10:09:05.370Z,31.26
2019-02-12T10:14:12.739Z,31.25
2019-02-12T10:19:20.047Z,31.37
2019-02-12T10:24:27.997Z,31.22
2019-02-12T10:29:35.378Z,31.00
2019-02-12T10:34:42.572Z,30.91
2019-02-12T10:39:49.962Z,30.77
2019-02-12T10:44:57.369Z,30.88
2019-02-12T10:50:05.377Z,30.86
2019-02-12T10:55:13.406Z,30.89
2019-02-12T11:00:21.133Z,30.89
2019-02-12T11:05:28.522Z,30.89
2019-02-12T11:10:35.939Z,30.95
2019-02-12T11:15:43.539Z,30.90
2019-02-12T11:20:50.947Z,30.89
2019-02-12T11:25:58.449Z,30.88
2019-02-12T11:31:05.850Z,30.87
2019-02-12T11:36:14.378Z,30.48
2019-02-12T11:41:22.363Z,30.67
2019-02-12T11:46:30.024Z,30.29
2019-02-12T11:51:38.248Z,30.20
2019-02-12T11:56:46.371Z,30.20
2019-02-12T12:01:53.770Z,30.50
2019-02-12T12:07:02.055Z,30.35
2019-02-12T12:12:10.007Z,30.42
2019-02-12T12:17:18.369Z,30.46
2019-02-12T12:22:26.216Z,30.57
2019-02-12T12:27:34.055Z,30.68
2019-02-12T12:32:41.461Z,30.74
2019-02-12T12:37:48.872Z,30.80
2019-02-12T12:42:56.275Z,30.83
2019-02-12T12:48:03.700Z,30.91
2019-02-12T12:53:11.036Z,30.87
2019-02-12T12:58:18.593Z,30.79
2019-02-12T13:03:26.128Z,30.51
2019-02-12T13:08:33.605Z,30.22
2019-02-12T13:13:41.134Z,29.98
2019-02-12T13:18:48.511Z,29.99
2019-02-12T13:23:55.914Z,30.09
2019-02-12T13:29:03.551Z,30.18
2019-02-12T13:34:10.863Z,30.33
2019-02-12T13:39:17.868Z,30.40
2019-02-12T13:44:25.154Z,30.53
2019-02-12T13:49:32.528Z,30.63
2019-02-12T13:54:39.943Z,30.71
2019-02-12T13:59:47.382Z,30.79
2019-02-12T14:04:54.972Z,30.92
2019-02-12T14:10:02.417Z,30.86
2019-02-12T14:15:09.963Z,30.92
2019-02-12T14:20:17.487Z,30.92
2019-02-12T14:25:25.891Z,30.65
2019-02-12T14:30:33.030Z,30.47
2019-02-12T14:35:40.501Z,30.27
2019-02-12T14:40:47.900Z,30.28
2019-02-12T14:45:54.897Z,30.20
2019-02-12T14:51:14.689Z,30.15
2019-02-12T14:56:21.957Z,30.14
2019-02-12T15:01:29.494Z,30.29
2019-02-12T15:06:37.141Z,30.36
2019-02-12T15:11:44.527Z,30.43
2019-02-12T15:16:51.378Z,30.57
2019-02-12T15:21:58.638Z,30.68
2019-02-12T15:27:05.911Z,30.69
2019-02-12T15:32:13.370Z,30.94
2019-02-12T15:37:21.031Z,30.87
2019-02-12T15:42:29.565Z,30.90
2019-02-12T15:47:37.882Z,30.79
2019-02-12T15:52:48.507Z,30.69
2019-02-12T15:57:56.582Z,30.70
2019-02-12T16:03:04.635Z,30.66
2019-02-12T16:08:11.803Z,30.75
2019-02-12T16:13:18.993Z,30.75
2019-02-12T16:18:26.539Z,30.55
2019-02-12T16:23:33.914Z,30.69
2019-02-12T16:28:41.513Z,30.76
2019-02-12T16:33:49.039Z,30.87
2019-02-12T16:38:56.559Z,30.91
2019-02-12T16:44:06.006Z,30.93
2019-02-12T16:49:14.768Z,31.03
2019-02-12T16:54:22.088Z,31.15
2019-02-12T16:59:29.656Z,31.27
2019-02-12T17:04:48.877Z,31.20
2019-02-12T17:09:53.770Z,31.11
2019-02-12T17:15:02.947Z,30.87
2019-02-12T17:20:11.097Z,30.72
2019-02-12T17:25:24.220Z,30.79
2019-02-12T17:30:31.877Z,30.91
2019-02-12T17:35:39.868Z,30.89
2019-02-12T17:40:47.375Z,30.89
2019-02-12T17:46:00.262Z,30.92
2019-02-12T17:51:16.666Z,30.95
2019-02-12T17:56:33.365Z,30.84
2019-02-12T18:01:49.293Z,30.99
2019-02-12T18:07:04.587Z,30.99
2019-02-12T18:12:19.478Z,31.06
2019-02-12T18:17:33.238Z,31.10
2019-02-12T18:22:46.516Z,31.17
2019-02-12T18:28:16.353Z,30.90
2019-02-12T18:33:35.021Z,30.75
2019-02-12T18:38:53.252Z,30.68
2019-02-12T18:44:06.394Z,30.67
2019-02-12T18:49:26.837Z,30.68
2019-02-12T18:54:43.713Z,30.89
2019-02-12T19:00:02.956Z,30.81
2019-02-12T19:05:15.180Z,30.86
2019-02-12T19:10:28.279Z,30.92
2019-02-12T19:15:41.979Z,30.96
2019-02-12T19:20:57.544Z,30.96
2019-02-12T19:26:09.729Z,30.99
2019-02-12T19:31:23.324Z,31.11
2019-02-12T19:36:39.221Z,31.05
2019-02-12T19:41:57.369Z,30.95
2019-02-12T19:47:12.495Z,30.62
2019-02-12T19:52:26.558Z,30.64
2019-02-12T19:57:40.011Z,30.57
2019-02-12T20:03:02.364Z,30.66
2019-02-12T20:08:22.708Z,30.75
2019-02-12T20:13:39.643Z,30.86
2019-02-12T20:18:55.542Z,30.99
2019-02-12T20:24:13.027Z,31.10
2019-02-12T20:29:29.420Z,31.17
2019-02-12T20:34:52.140Z,31.25
2019-02-12T20:40:09.318Z,31.27
2019-02-12T20:45:27.754Z,31.35
2019-02-12T20:50:46.486Z,31.49
2019-02-12T20:56:22.312Z,31.56
2019-02-12T21:01:33.378Z,31.50
2019-02-12T21:06:47.676Z,31.49
2019-02-12T21:12:05.473Z,31.22
2019-02-12T21:17:13.303Z,31.17
2019-02-12T21:22:33.883Z,31.21
2019-02-12T21:27:51.350Z,31.30
2019-02-12T21:33:03.939Z,31.36
2019-02-12T21:38:22.609Z,31.50
2019-02-12T21:43:36.648Z,31.58
2019-02-12T21:48:46.742Z,31.59
2019-02-12T21:54:02.019Z,31.65
2019-02-12T21:59:15.142Z,31.74
2019-02-12T22:04:29.875Z,31.81
2019-02-12T22:09:44.477Z,31.82
2019-02-12T22:15:02.706Z,31.86
2019-02-12T22:20:21.333Z,31.81
2019-02-12T22:25:27.628Z,31.77
2019-02-12T22:30:43.035Z,31.69
2019-02-12T22:35:57.496Z,31.50
2019-02-12T22:41:11.138Z,31.46
2019-02-12T22:46:24.118Z,31.47
2019-02-12T22:51:38.419Z,31.53
2019-02-12T22:56:52.617Z,31.60
2019-02-12T23:02:02.790Z,31.63
2019-02-12T23:07:29.149Z,31.70
2019-02-12T23:12:40.225Z,31.77
2019-02-12T23:17:50.875Z,31.86
2019-02-12T23:23:07.038Z,32.02
2019-02-12T23:28:15.521Z,31.99
2019-02-12T23:33:25.250Z,32.03
2019-02-12T23:38:33.831Z,31.90
2019-02-12T23:43:41.964Z,31.69
2019-02-12T23:48:49.832Z,31.61
2019-02-12T23:54:08.383Z,31.71
2019-02-12T23:59:15.990Z,31.61
